sensor_id;sensor_type;location;lat;lon;timestamp;P1;durP1;ratioP1;P2;durP2;ratioP2
20124;SDS011;10223;50.862;4.360;2023-04-28T00:00:06;27.53;;;15.60;;
20124;SDS011;10223;50.862;4.360;2023-04-28T00:02:34;33.43;;;17.77;;
20124;SDS011;10223;50.862;4.360;2023-04-28T00:05:00;29.70;;;17.97;;
20124;SDS011;10223;50.862;4.360;2023-04-28T00:07:27;34.93;;;19.77;;
20124;SDS011;10223;50.862;4.360;2023-04-28T00:09:54;33.93;;;20.20;;
20124;SDS011;10223;50.862;4.360;2023-04-28T00:12:21;32.77;;;17.17;;
20124;SDS011;10223;50.862;4.360;2023-04-28T00:14:50;38.60;;;23.57;;
20124;SDS011;10223;50.862;4.360;2023-04-28T00:17:17;33.40;;;20.97;;
20124;SDS011;10223;50.862;4.360;2023-04-28T00:19:43;34.33;;;20.60;;
20124;SDS011;10223;50.862;4.360;2023-04-28T00:22:10;35.00;;;20.30;;
20124;SDS011;10223;50.862;4.360;2023-04-28T00:24:37;45.20;;;20.87;;
20124;SDS011;10223;50.862;4.360;2023-04-28T00:27:05;36.73;;;20.83;;
20124;SDS011;10223;50.862;4.360;2023-04-28T00:29:32;40.90;;;21.03;;
20124;SDS011;10223;50.862;4.360;2023-04-28T00:32:01;37.10;;;20.83;;
20124;SDS011;10223;50.862;4.360;2023-04-28T00:34:28;36.90;;;20.20;;
20124;SDS011;10223;50.862;4.360;2023-04-28T00:36:58;42.27;;;23.53;;
20124;SDS011;10223;50.862;4.360;2023-04-28T00:39:25;40.63;;;21.97;;
20124;SDS011;10223;50.862;4.360;2023-04-28T00:41:52;41.00;;;21.67;;
20124;SDS011;10223;50.862;4.360;2023-04-28T00:44:18;35.67;;;21.83;;
20124;SDS011;10223;50.862;4.360;2023-04-28T00:46:46;41.03;;;21.77;;
20124;SDS011;10223;50.862;4.360;2023-04-28T00:49:14;35.07;;;21.47;;
20124;SDS011;10223;50.862;4.360;2023-04-28T00:51:42;38.57;;;21.20;;
20124;SDS011;10223;50.862;4.360;2023-04-28T00:54:09;35.37;;;21.23;;
20124;SDS011;10223;50.862;4.360;2023-04-28T00:56:39;41.87;;;22.00;;
20124;SDS011;10223;50.862;4.360;2023-04-28T00:59:05;34.30;;;21.40;;
20124;SDS011;10223;50.862;4.360;2023-04-28T01:01:33;40.60;;;21.03;;
20124;SDS011;10223;50.862;4.360;2023-04-28T01:04:00;44.10;;;21.47;;
20124;SDS011;10223;50.862;4.360;2023-04-28T01:06:28;34.73;;;21.20;;
20124;SDS011;10223;50.862;4.360;2023-04-28T01:08:57;37.67;;;22.97;;
20124;SDS011;10223;50.862;4.360;2023-04-28T01:11:23;40.97;;;21.97;;
20124;SDS011;10223;50.862;4.360;2023-04-28T01:13:50;37.67;;;21.83;;
20124;SDS011;10223;50.862;4.360;2023-04-28T01:16:17;40.60;;;23.37;;
20124;SDS011;10223;50.862;4.360;2023-04-28T01:18:45;42.13;;;22.87;;
20124;SDS011;10223;50.862;4.360;2023-04-28T01:21:13;37.70;;;21.43;;
20124;SDS011;10223;50.862;4.360;2023-04-28T01:26:15;40.50;;;20.97;;
20124;SDS011;10223;50.862;4.360;2023-04-28T01:28:42;37.23;;;21.90;;
20124;SDS011;10223;50.862;4.360;2023-04-28T01:31:08;34.83;;;21.23;;
20124;SDS011;10223;50.862;4.360;2023-04-28T01:33:35;35.80;;;21.17;;
20124;SDS011;10223;50.862;4.360;2023-04-28T01:36:02;34.73;;;20.90;;
20124;SDS011;10223;50.862;4.360;2023-04-28T01:38:29;36.70;;;21.63;;
20124;SDS011;10223;50.862;4.360;2023-04-28T01:40:58;37.80;;;22.80;;
20124;SDS011;10223;50.862;4.360;2023-04-28T01:43:26;37.20;;;20.60;;
20124;SDS011;10223;50.862;4.360;2023-04-28T01:45:53;36.57;;;21.47;;
20124;SDS011;10223;50.862;4.360;2023-04-28T01:48:20;38.70;;;22.50;;
20124;SDS011;10223;50.862;4.360;2023-04-28T01:50:47;38.60;;;21.70;;
20124;SDS011;10223;50.862;4.360;2023-04-28T01:53:14;37.30;;;21.87;;
20124;SDS011;10223;50.862;4.360;2023-04-28T01:55:44;40.03;;;23.13;;
20124;SDS011;10223;50.862;4.360;2023-04-28T01:58:13;42.20;;;23.23;;
20124;SDS011;10223;50.862;4.360;2023-04-28T02:00:40;38.50;;;21.53;;
20124;SDS011;10223;50.862;4.360;2023-04-28T02:03:06;42.03;;;22.93;;
20124;SDS011;10223;50.862;4.360;2023-04-28T02:05:33;39.70;;;21.70;;
20124;SDS011;10223;50.862;4.360;2023-04-28T02:08:00;39.73;;;23.30;;
20124;SDS011;10223;50.862;4.360;2023-04-28T02:10:27;41.63;;;25.00;;
20124;SDS011;10223;50.862;4.360;2023-04-28T02:12:54;49.97;;;27.73;;
20124;SDS011;10223;50.862;4.360;2023-04-28T02:15:22;45.03;;;25.57;;
20124;SDS011;10223;50.862;4.360;2023-04-28T02:17:49;46.47;;;25.97;;
20124;SDS011;10223;50.862;4.360;2023-04-28T02:20:16;50.27;;;27.40;;
20124;SDS011;10223;50.862;4.360;2023-04-28T02:22:43;47.87;;;27.10;;
20124;SDS011;10223;50.862;4.360;2023-04-28T02:25:10;51.53;;;26.50;;
20124;SDS011;10223;50.862;4.360;2023-04-28T02:27:37;57.57;;;30.77;;
20124;SDS011;10223;50.862;4.360;2023-04-28T02:30:04;49.83;;;27.83;;
20124;SDS011;10223;50.862;4.360;2023-04-28T02:32:33;50.70;;;28.93;;
20124;SDS011;10223;50.862;4.360;2023-04-28T02:35:00;49.10;;;28.07;;
20124;SDS011;10223;50.862;4.360;2023-04-28T02:37:27;45.17;;;25.37;;
20124;SDS011;10223;50.862;4.360;2023-04-28T02:39:54;43.07;;;25.27;;
20124;SDS011;10223;50.862;4.360;2023-04-28T02:42:20;43.77;;;25.50;;
20124;SDS011;10223;50.862;4.360;2023-04-28T02:44:47;48.33;;;27.40;;
20124;SDS011;10223;50.862;4.360;2023-04-28T02:47:14;46.90;;;27.73;;
20124;SDS011;10223;50.862;4.360;2023-04-28T02:49:44;44.43;;;26.27;;
20124;SDS011;10223;50.862;4.360;2023-04-28T02:52:10;48.20;;;27.70;;
20124;SDS011;10223;50.862;4.360;2023-04-28T02:54:37;47.40;;;28.93;;
20124;SDS011;10223;50.862;4.360;2023-04-28T02:57:05;49.90;;;27.03;;
20124;SDS011;10223;50.862;4.360;2023-04-28T02:59:32;43.67;;;25.43;;
20124;SDS011;10223;50.862;4.360;2023-04-28T03:01:59;50.40;;;27.63;;
20124;SDS011;10223;50.862;4.360;2023-04-28T03:04:26;42.90;;;25.23;;
20124;SDS011;10223;50.862;4.360;2023-04-28T03:06:54;42.67;;;24.57;;
20124;SDS011;10223;50.862;4.360;2023-04-28T03:09:21;47.53;;;26.47;;
20124;SDS011;10223;50.862;4.360;2023-04-28T03:11:48;42.20;;;24.97;;
20124;SDS011;10223;50.862;4.360;2023-04-28T03:14:15;42.30;;;25.53;;
20124;SDS011;10223;50.862;4.360;2023-04-28T03:16:42;41.03;;;24.47;;
20124;SDS011;10223;50.862;4.360;2023-04-28T03:19:09;38.07;;;23.40;;
20124;SDS011;10223;50.862;4.360;2023-04-28T03:21:36;38.53;;;24.80;;
20124;SDS011;10223;50.862;4.360;2023-04-28T03:24:04;44.63;;;25.30;;
20124;SDS011;10223;50.862;4.360;2023-04-28T03:26:31;47.80;;;26.53;;
20124;SDS011;10223;50.862;4.360;2023-04-28T03:28:58;42.23;;;23.80;;
20124;SDS011;10223;50.862;4.360;2023-04-28T03:31:25;42.93;;;25.07;;
20124;SDS011;10223;50.862;4.360;2023-04-28T03:33:52;42.70;;;26.00;;
20124;SDS011;10223;50.862;4.360;2023-04-28T03:36:19;42.70;;;25.23;;
20124;SDS011;10223;50.862;4.360;2023-04-28T03:38:46;47.57;;;26.63;;
20124;SDS011;10223;50.862;4.360;2023-04-28T03:41:14;44.07;;;26.47;;
20124;SDS011;10223;50.862;4.360;2023-04-28T03:43:41;46.37;;;27.00;;
20124;SDS011;10223;50.862;4.360;2023-04-28T03:46:08;49.30;;;26.87;;
20124;SDS011;10223;50.862;4.360;2023-04-28T03:48:35;46.80;;;26.80;;
20124;SDS011;10223;50.862;4.360;2023-04-28T03:51:02;46.43;;;26.07;;
20124;SDS011;10223;50.862;4.360;2023-04-28T03:53:29;48.10;;;27.83;;
20124;SDS011;10223;50.862;4.360;2023-04-28T03:55:56;45.83;;;27.03;;
20124;SDS011;10223;50.862;4.360;2023-04-28T03:58:24;44.83;;;27.47;;
20124;SDS011;10223;50.862;4.360;2023-04-28T04:00:52;51.13;;;30.13;;
20124;SDS011;10223;50.862;4.360;2023-04-28T04:03:19;50.83;;;28.90;;
20124;SDS011;10223;50.862;4.360;2023-04-28T04:05:49;44.23;;;28.17;;
20124;SDS011;10223;50.862;4.360;2023-04-28T04:08:16;50.73;;;30.20;;
20124;SDS011;10223;50.862;4.360;2023-04-28T04:10:43;48.90;;;29.47;;
20124;SDS011;10223;50.862;4.360;2023-04-28T04:13:10;51.83;;;29.57;;
20124;SDS011;10223;50.862;4.360;2023-04-28T04:15:38;51.37;;;29.63;;
20124;SDS011;10223;50.862;4.360;2023-04-28T04:18:05;49.67;;;29.40;;
20124;SDS011;10223;50.862;4.360;2023-04-28T04:20:31;48.53;;;28.53;;
20124;SDS011;10223;50.862;4.360;2023-04-28T04:22:58;50.87;;;29.23;;
20124;SDS011;10223;50.862;4.360;2023-04-28T04:25:25;51.43;;;28.47;;
20124;SDS011;10223;50.862;4.360;2023-04-28T04:27:52;45.40;;;28.23;;
20124;SDS011;10223;50.862;4.360;2023-04-28T04:30:19;55.83;;;34.43;;
20124;SDS011;10223;50.862;4.360;2023-04-28T04:32:48;53.87;;;30.97;;
20124;SDS011;10223;50.862;4.360;2023-04-28T04:35:15;49.20;;;30.30;;
20124;SDS011;10223;50.862;4.360;2023-04-28T04:37:42;51.87;;;30.17;;
20124;SDS011;10223;50.862;4.360;2023-04-28T04:40:10;49.90;;;29.03;;
20124;SDS011;10223;50.862;4.360;2023-04-28T04:42:37;44.47;;;25.87;;
20124;SDS011;10223;50.862;4.360;2023-04-28T04:45:04;44.17;;;28.67;;
20124;SDS011;10223;50.862;4.360;2023-04-28T04:47:32;46.90;;;28.20;;
20124;SDS011;10223;50.862;4.360;2023-04-28T04:50:00;45.10;;;28.13;;
20124;SDS011;10223;50.862;4.360;2023-04-28T04:52:27;45.77;;;26.40;;
20124;SDS011;10223;50.862;4.360;2023-04-28T04:54:54;44.37;;;27.23;;
20124;SDS011;10223;50.862;4.360;2023-04-28T04:57:21;45.50;;;27.93;;
20124;SDS011;10223;50.862;4.360;2023-04-28T04:59:48;45.53;;;28.83;;
20124;SDS011;10223;50.862;4.360;2023-04-28T05:02:15;47.40;;;27.37;;
20124;SDS011;10223;50.862;4.360;2023-04-28T05:04:42;48.10;;;28.10;;
20124;SDS011;10223;50.862;4.360;2023-04-28T05:07:11;47.70;;;26.83;;
20124;SDS011;10223;50.862;4.360;2023-04-28T05:09:38;43.03;;;28.00;;
20124;SDS011;10223;50.862;4.360;2023-04-28T05:12:05;47.07;;;28.20;;
20124;SDS011;10223;50.862;4.360;2023-04-28T05:14:32;43.60;;;26.57;;
20124;SDS011;10223;50.862;4.360;2023-04-28T05:16:59;43.73;;;25.73;;
20124;SDS011;10223;50.862;4.360;2023-04-28T05:19:25;37.80;;;23.83;;
20124;SDS011;10223;50.862;4.360;2023-04-28T05:21:52;47.13;;;27.40;;
20124;SDS011;10223;50.862;4.360;2023-04-28T05:24:21;40.90;;;24.87;;
20124;SDS011;10223;50.862;4.360;2023-04-28T05:26:48;50.87;;;30.77;;
20124;SDS011;10223;50.862;4.360;2023-04-28T05:29:15;41.70;;;24.40;;
20124;SDS011;10223;50.862;4.360;2023-04-28T05:31:42;49.23;;;30.03;;
20124;SDS011;10223;50.862;4.360;2023-04-28T05:34:09;39.63;;;24.27;;
20124;SDS011;10223;50.862;4.360;2023-04-28T05:36:36;40.03;;;19.97;;
20124;SDS011;10223;50.862;4.360;2023-04-28T05:39:03;43.63;;;25.23;;
20124;SDS011;10223;50.862;4.360;2023-04-28T05:41:33;45.03;;;25.23;;
20124;SDS011;10223;50.862;4.360;2023-04-28T05:44:00;39.67;;;22.57;;
20124;SDS011;10223;50.862;4.360;2023-04-28T05:46:27;39.10;;;22.97;;
20124;SDS011;10223;50.862;4.360;2023-04-28T05:48:54;40.20;;;21.97;;
20124;SDS011;10223;50.862;4.360;2023-04-28T05:51:21;38.63;;;24.07;;
20124;SDS011;10223;50.862;4.360;2023-04-28T05:53:48;41.13;;;22.63;;
20124;SDS011;10223;50.862;4.360;2023-04-28T05:56:15;37.10;;;20.83;;
20124;SDS011;10223;50.862;4.360;2023-04-28T05:58:43;28.27;;;14.93;;
20124;SDS011;10223;50.862;4.360;2023-04-28T06:01:11;29.27;;;17.40;;
20124;SDS011;10223;50.862;4.360;2023-04-28T06:03:38;50.37;;;21.40;;
20124;SDS011;10223;50.862;4.360;2023-04-28T06:06:05;30.27;;;17.00;;
20124;SDS011;10223;50.862;4.360;2023-04-28T06:08:33;33.13;;;19.47;;
20124;SDS011;10223;50.862;4.360;2023-04-28T06:10:59;29.13;;;15.50;;
20124;SDS011;10223;50.862;4.360;2023-04-28T06:13:26;24.37;;;14.57;;
20124;SDS011;10223;50.862;4.360;2023-04-28T06:15:55;25.30;;;14.97;;
20124;SDS011;10223;50.862;4.360;2023-04-28T06:18:22;22.00;;;13.43;;
20124;SDS011;10223;50.862;4.360;2023-04-28T06:20:49;21.07;;;12.37;;
20124;SDS011;10223;50.862;4.360;2023-04-28T06:23:20;14.00;;;9.87;;
20124;SDS011;10223;50.862;4.360;2023-04-28T06:25:46;16.83;;;10.80;;
20124;SDS011;10223;50.862;4.360;2023-04-28T06:28:13;14.00;;;9.67;;
20124;SDS011;10223;50.862;4.360;2023-04-28T06:30:40;12.03;;;8.63;;
20124;SDS011;10223;50.862;4.360;2023-04-28T06:33:09;10.33;;;8.37;;
20124;SDS011;10223;50.862;4.360;2023-04-28T06:35:35;12.63;;;9.00;;
20124;SDS011;10223;50.862;4.360;2023-04-28T06:38:03;12.30;;;8.40;;
20124;SDS011;10223;50.862;4.360;2023-04-28T06:40:31;10.87;;;7.93;;
20124;SDS011;10223;50.862;4.360;2023-04-28T06:42:58;17.57;;;8.93;;
20124;SDS011;10223;50.862;4.360;2023-04-28T06:45:25;11.53;;;7.60;;
20124;SDS011;10223;50.862;4.360;2023-04-28T06:47:52;13.57;;;8.10;;
20124;SDS011;10223;50.862;4.360;2023-04-28T06:50:21;10.90;;;6.93;;
20124;SDS011;10223;50.862;4.360;2023-04-28T06:52:48;10.43;;;6.83;;
20124;SDS011;10223;50.862;4.360;2023-04-28T06:55:15;13.20;;;7.77;;
20124;SDS011;10223;50.862;4.360;2023-04-28T06:57:43;7.90;;;6.13;;
20124;SDS011;10223;50.862;4.360;2023-04-28T07:00:10;7.90;;;6.33;;
20124;SDS011;10223;50.862;4.360;2023-04-28T07:02:38;10.37;;;6.53;;
20124;SDS011;10223;50.862;4.360;2023-04-28T07:05:05;8.27;;;5.87;;
20124;SDS011;10223;50.862;4.360;2023-04-28T07:07:35;10.17;;;5.80;;
20124;SDS011;10223;50.862;4.360;2023-04-28T07:10:03;6.53;;;5.27;;
20124;SDS011;10223;50.862;4.360;2023-04-28T07:12:31;8.93;;;5.27;;
20124;SDS011;10223;50.862;4.360;2023-04-28T07:14:58;10.23;;;5.07;;
20124;SDS011;10223;50.862;4.360;2023-04-28T07:17:24;9.10;;;5.67;;
20124;SDS011;10223;50.862;4.360;2023-04-28T07:19:51;9.07;;;4.70;;
20124;SDS011;10223;50.862;4.360;2023-04-28T07:22:18;6.67;;;4.77;;
20124;SDS011;10223;50.862;4.360;2023-04-28T07:24:46;6.90;;;4.80;;
20124;SDS011;10223;50.862;4.360;2023-04-28T07:27:13;8.83;;;4.63;;
20124;SDS011;10223;50.862;4.360;2023-04-28T07:29:41;6.40;;;4.20;;
20124;SDS011;10223;50.862;4.360;2023-04-28T07:32:08;6.43;;;4.10;;
20124;SDS011;10223;50.862;4.360;2023-04-28T07:34:35;9.77;;;3.97;;
20124;SDS011;10223;50.862;4.360;2023-04-28T07:37:02;6.63;;;5.00;;
20124;SDS011;10223;50.862;4.360;2023-04-28T07:39:29;13.03;;;4.10;;
20124;SDS011;10223;50.862;4.360;2023-04-28T07:41:59;8.80;;;4.53;;
20124;SDS011;10223;50.862;4.360;2023-04-28T07:44:27;8.83;;;3.63;;
20124;SDS011;10223;50.862;4.360;2023-04-28T07:46:56;11.60;;;4.47;;
20124;SDS011;10223;50.862;4.360;2023-04-28T07:49:24;6.70;;;3.43;;
20124;SDS011;10223;50.862;4.360;2023-04-28T07:51:52;10.23;;;4.00;;
20124;SDS011;10223;50.862;4.360;2023-04-28T07:54:19;4.50;;;3.10;;
20124;SDS011;10223;50.862;4.360;2023-04-28T07:56:46;3.97;;;3.03;;
20124;SDS011;10223;50.862;4.360;2023-04-28T07:59:14;4.10;;;3.00;;
20124;SDS011;10223;50.862;4.360;2023-04-28T08:01:41;5.07;;;2.67;;
20124;SDS011;10223;50.862;4.360;2023-04-28T08:04:08;2.83;;;1.90;;
20124;SDS011;10223;50.862;4.360;2023-04-28T08:06:36;4.90;;;1.80;;
20124;SDS011;10223;50.862;4.360;2023-04-28T08:09:04;3.37;;;1.80;;
20124;SDS011;10223;50.862;4.360;2023-04-28T08:11:31;3.70;;;2.23;;
20124;SDS011;10223;50.862;4.360;2023-04-28T08:13:58;3.47;;;1.70;;
20124;SDS011;10223;50.862;4.360;2023-04-28T08:16:28;3.60;;;1.50;;
20124;SDS011;10223;50.862;4.360;2023-04-28T08:18:56;8.40;;;1.83;;
20124;SDS011;10223;50.862;4.360;2023-04-28T08:21:25;5.10;;;1.40;;
20124;SDS011;10223;50.862;4.360;2023-04-28T08:23:52;6.03;;;1.40;;
20124;SDS011;10223;50.862;4.360;2023-04-28T08:26:19;3.73;;;1.43;;
20124;SDS011;10223;50.862;4.360;2023-04-28T08:28:48;6.67;;;1.50;;
20124;SDS011;10223;50.862;4.360;2023-04-28T08:31:16;3.10;;;1.47;;
20124;SDS011;10223;50.862;4.360;2023-04-28T08:33:44;3.27;;;1.47;;
20124;SDS011;10223;50.862;4.360;2023-04-28T08:36:14;3.77;;;1.30;;
20124;SDS011;10223;50.862;4.360;2023-04-28T08:38:42;3.93;;;1.30;;
20124;SDS011;10223;50.862;4.360;2023-04-28T08:41:09;1.80;;;1.30;;
20124;SDS011;10223;50.862;4.360;2023-04-28T08:43:39;1.73;;;1.10;;
20124;SDS011;10223;50.862;4.360;2023-04-28T08:46:07;2.60;;;1.77;;
20124;SDS011;10223;50.862;4.360;2023-04-28T08:48:37;1.57;;;1.10;;
20124;SDS011;10223;50.862;4.360;2023-04-28T08:51:07;5.10;;;1.00;;
20124;SDS011;10223;50.862;4.360;2023-04-28T08:53:36;1.47;;;0.80;;
20124;SDS011;10223;50.862;4.360;2023-04-28T08:56:05;1.47;;;0.73;;
20124;SDS011;10223;50.862;4.360;2023-04-28T08:58:34;1.43;;;0.87;;
20124;SDS011;10223;50.862;4.360;2023-04-28T09:01:02;1.47;;;0.70;;
20124;SDS011;10223;50.862;4.360;2023-04-28T09:03:29;1.00;;;0.70;;
20124;SDS011;10223;50.862;4.360;2023-04-28T09:05:56;1.67;;;0.70;;
20124;SDS011;10223;50.862;4.360;2023-04-28T09:08:25;1.67;;;0.70;;
20124;SDS011;10223;50.862;4.360;2023-04-28T09:11:05;2.03;;;0.90;;
20124;SDS011;10223;50.862;4.360;2023-04-28T09:13:33;1.23;;;0.70;;
20124;SDS011;10223;50.862;4.360;2023-04-28T09:16:00;1.47;;;0.87;;
20124;SDS011;10223;50.862;4.360;2023-04-28T09:18:28;2.33;;;0.60;;
20124;SDS011;10223;50.862;4.360;2023-04-28T09:21:03;3.17;;;0.70;;
20124;SDS011;10223;50.862;4.360;2023-04-28T09:23:33;2.60;;;0.50;;
20124;SDS011;10223;50.862;4.360;2023-04-28T09:26:00;1.40;;;0.50;;
20124;SDS011;10223;50.862;4.360;2023-04-28T09:28:28;2.73;;;0.60;;
20124;SDS011;10223;50.862;4.360;2023-04-28T09:30:56;1.27;;;0.60;;
20124;SDS011;10223;50.862;4.360;2023-04-28T09:33:23;3.17;;;0.50;;
20124;SDS011;10223;50.862;4.360;2023-04-28T09:35:50;1.33;;;0.70;;
20124;SDS011;10223;50.862;4.360;2023-04-28T09:38:17;1.37;;;0.80;;
20124;SDS011;10223;50.862;4.360;2023-04-28T09:40:50;3.33;;;1.40;;
20124;SDS011;10223;50.862;4.360;2023-04-28T09:43:28;7.33;;;1.83;;
20124;SDS011;10223;50.862;4.360;2023-04-28T09:45:56;5.00;;;1.73;;
20124;SDS011;10223;50.862;4.360;2023-04-28T09:48:30;6.90;;;1.57;;
20124;SDS011;10223;50.862;4.360;2023-04-28T09:50:59;3.47;;;1.00;;
20124;SDS011;10223;50.862;4.360;2023-04-28T09:53:27;12.00;;;1.47;;
20124;SDS011;10223;50.862;4.360;2023-04-28T09:55:56;4.73;;;1.20;;
20124;SDS011;10223;50.862;4.360;2023-04-28T09:58:25;2.77;;;1.60;;
20124;SDS011;10223;50.862;4.360;2023-04-28T10:00:53;4.38;;;1.63;;
20124;SDS011;10223;50.862;4.360;2023-04-28T10:03:22;6.00;;;2.50;;
20124;SDS011;10223;50.862;4.360;2023-04-28T10:05:50;3.70;;;2.10;;
20124;SDS011;10223;50.862;4.360;2023-04-28T10:08:18;4.18;;;1.88;;
20124;SDS011;10223;50.862;4.360;2023-04-28T10:10:47;3.88;;;2.35;;
20124;SDS011;10223;50.862;4.360;2023-04-28T10:13:18;3.17;;;1.00;;
20124;SDS011;10223;50.862;4.360;2023-04-28T10:15:46;1.92;;;1.13;;
20124;SDS011;10223;50.862;4.360;2023-04-28T10:18:13;1.60;;;0.90;;
20124;SDS011;10223;50.862;4.360;2023-04-28T10:20:41;2.75;;;0.73;;
20124;SDS011;10223;50.862;4.360;2023-04-28T10:23:27;5.00;;;1.02;;
20124;SDS011;10223;50.862;4.360;2023-04-28T10:26:16;0.65;;;0.57;;
20124;SDS011;10223;50.862;4.360;2023-04-28T10:28:47;4.73;;;0.70;;
20124;SDS011;10223;50.862;4.360;2023-04-28T10:31:16;1.13;;;0.60;;
20124;SDS011;10223;50.862;4.360;2023-04-28T10:33:45;1.80;;;0.67;;
20124;SDS011;10223;50.862;4.360;2023-04-28T10:39:13;1.50;;;0.80;;
20124;SDS011;10223;50.862;4.360;2023-04-28T10:41:40;2.10;;;0.70;;
20124;SDS011;10223;50.862;4.360;2023-04-28T10:47:10;3.57;;;1.00;;
20124;SDS011;10223;50.862;4.360;2023-04-28T10:52:48;4.10;;;1.50;;
20124;SDS011;10223;50.862;4.360;2023-04-28T10:55:25;4.77;;;1.40;;
20124;SDS011;10223;50.862;4.360;2023-04-28T11:00:55;3.53;;;1.43;;
20124;SDS011;10223;50.862;4.360;2023-04-28T11:03:52;5.07;;;1.67;;
20124;SDS011;10223;50.862;4.360;2023-04-28T11:06:27;2.00;;;1.60;;
20124;SDS011;10223;50.862;4.360;2023-04-28T11:08:56;2.00;;;1.50;;
20124;SDS011;10223;50.862;4.360;2023-04-28T11:11:25;2.47;;;1.40;;
20124;SDS011;10223;50.862;4.360;2023-04-28T11:13:53;6.13;;;1.83;;
20124;SDS011;10223;50.862;4.360;2023-04-28T11:16:23;4.90;;;1.50;;
20124;SDS011;10223;50.862;4.360;2023-04-28T11:18:54;1.90;;;1.20;;
20124;SDS011;10223;50.862;4.360;2023-04-28T11:21:31;4.10;;;1.67;;
20124;SDS011;10223;50.862;4.360;2023-04-28T11:23:58;3.40;;;1.50;;
20124;SDS011;10223;50.862;4.360;2023-04-28T11:26:26;5.90;;;1.30;;
20124;SDS011;10223;50.862;4.360;2023-04-28T11:28:54;2.37;;;1.17;;
20124;SDS011;10223;50.862;4.360;2023-04-28T11:31:24;6.63;;;1.50;;
20124;SDS011;10223;50.862;4.360;2023-04-28T11:33:53;5.97;;;1.33;;
20124;SDS011;10223;50.862;4.360;2023-04-28T11:36:28;6.30;;;1.80;;
20124;SDS011;10223;50.862;4.360;2023-04-28T11:38:57;5.13;;;1.30;;
20124;SDS011;10223;50.862;4.360;2023-04-28T11:41:24;2.93;;;1.47;;
20124;SDS011;10223;50.862;4.360;2023-04-28T11:43:51;2.50;;;1.43;;
20124;SDS011;10223;50.862;4.360;2023-04-28T11:46:19;1.83;;;1.10;;
20124;SDS011;10223;50.862;4.360;2023-04-28T11:48:58;7.13;;;1.40;;
20124;SDS011;10223;50.862;4.360;2023-04-28T11:51:29;5.23;;;1.60;;
20124;SDS011;10223;50.862;4.360;2023-04-28T11:53:57;5.90;;;2.77;;
20124;SDS011;10223;50.862;4.360;2023-04-28T11:56:25;4.80;;;2.10;;
20124;SDS011;10223;50.862;4.360;2023-04-28T11:58:58;4.57;;;1.43;;
20124;SDS011;10223;50.862;4.360;2023-04-28T12:01:26;5.33;;;1.80;;
20124;SDS011;10223;50.862;4.360;2023-04-28T12:03:55;5.90;;;2.00;;
20124;SDS011;10223;50.862;4.360;2023-04-28T12:06:22;4.67;;;1.60;;
20124;SDS011;10223;50.862;4.360;2023-04-28T12:08:49;1.60;;;0.90;;
20124;SDS011;10223;50.862;4.360;2023-04-28T12:11:16;2.97;;;1.17;;
20124;SDS011;10223;50.862;4.360;2023-04-28T12:13:50;2.80;;;1.57;;
20124;SDS011;10223;50.862;4.360;2023-04-28T12:16:35;1.10;;;0.90;;
20124;SDS011;10223;50.862;4.360;2023-04-28T12:19:08;2.27;;;1.00;;
20124;SDS011;10223;50.862;4.360;2023-04-28T12:21:37;6.83;;;1.30;;
20124;SDS011;10223;50.862;4.360;2023-04-28T12:24:17;6.43;;;1.20;;
20124;SDS011;10223;50.862;4.360;2023-04-28T12:26:46;1.43;;;0.97;;
20124;SDS011;10223;50.862;4.360;2023-04-28T12:32:03;2.63;;;1.20;;
20124;SDS011;10223;50.862;4.360;2023-04-28T12:34:32;3.03;;;1.13;;
20124;SDS011;10223;50.862;4.360;2023-04-28T12:37:00;0.77;;;0.70;;
20124;SDS011;10223;50.862;4.360;2023-04-28T12:39:30;3.90;;;1.23;;
20124;SDS011;10223;50.862;4.360;2023-04-28T12:41:57;2.67;;;1.00;;
20124;SDS011;10223;50.862;4.360;2023-04-28T12:44:27;2.83;;;0.70;;
20124;SDS011;10223;50.862;4.360;2023-04-28T12:46:59;3.23;;;1.00;;
20124;SDS011;10223;50.862;4.360;2023-04-28T12:49:27;3.33;;;0.90;;
20124;SDS011;10223;50.862;4.360;2023-04-28T12:51:55;2.57;;;1.27;;
20124;SDS011;10223;50.862;4.360;2023-04-28T12:54:22;2.17;;;1.40;;
20124;SDS011;10223;50.862;4.360;2023-04-28T12:56:49;2.40;;;1.20;;
20124;SDS011;10223;50.862;4.360;2023-04-28T12:59:15;1.30;;;1.10;;
20124;SDS011;10223;50.862;4.360;2023-04-28T13:01:42;3.83;;;1.33;;
20124;SDS011;10223;50.862;4.360;2023-04-28T13:04:10;4.33;;;1.40;;
20124;SDS011;10223;50.862;4.360;2023-04-28T13:06:36;2.97;;;1.23;;
20124;SDS011;10223;50.862;4.360;2023-04-28T13:09:05;4.67;;;1.40;;
20124;SDS011;10223;50.862;4.360;2023-04-28T13:11:33;3.40;;;1.33;;
20124;SDS011;10223;50.862;4.360;2023-04-28T13:14:00;1.77;;;1.30;;
20124;SDS011;10223;50.862;4.360;2023-04-28T13:16:28;1.53;;;1.20;;
20124;SDS011;10223;50.862;4.360;2023-04-28T13:18:55;4.50;;;1.40;;
20124;SDS011;10223;50.862;4.360;2023-04-28T13:21:22;4.47;;;1.80;;
20124;SDS011;10223;50.862;4.360;2023-04-28T13:23:50;1.20;;;1.00;;
20124;SDS011;10223;50.862;4.360;2023-04-28T13:26:19;3.97;;;1.40;;
20124;SDS011;10223;50.862;4.360;2023-04-28T13:28:48;1.43;;;0.93;;
20124;SDS011;10223;50.862;4.360;2023-04-28T13:31:16;3.43;;;1.20;;
20124;SDS011;10223;50.862;4.360;2023-04-28T13:33:42;1.43;;;0.97;;
20124;SDS011;10223;50.862;4.360;2023-04-28T13:36:09;3.00;;;1.30;;
20124;SDS011;10223;50.862;4.360;2023-04-28T13:38:36;2.23;;;1.03;;
20124;SDS011;10223;50.862;4.360;2023-04-28T13:41:03;4.00;;;1.30;;
20124;SDS011;10223;50.862;4.360;2023-04-28T13:43:32;5.37;;;1.03;;
20124;SDS011;10223;50.862;4.360;2023-04-28T13:45:59;4.63;;;1.00;;
20124;SDS011;10223;50.862;4.360;2023-04-28T13:48:26;1.50;;;1.20;;
20124;SDS011;10223;50.862;4.360;2023-04-28T13:50:53;4.30;;;1.10;;
20124;SDS011;10223;50.862;4.360;2023-04-28T13:53:20;2.67;;;1.30;;
20124;SDS011;10223;50.862;4.360;2023-04-28T13:55:48;4.80;;;1.30;;
20124;SDS011;10223;50.862;4.360;2023-04-28T13:58:17;3.83;;;1.40;;
20124;SDS011;10223;50.862;4.360;2023-04-28T14:00:46;7.20;;;1.30;;
20124;SDS011;10223;50.862;4.360;2023-04-28T14:03:13;3.37;;;1.03;;
20124;SDS011;10223;50.862;4.360;2023-04-28T14:05:39;2.80;;;1.10;;
20124;SDS011;10223;50.862;4.360;2023-04-28T14:08:07;1.60;;;0.90;;
20124;SDS011;10223;50.862;4.360;2023-04-28T14:10:35;8.43;;;1.30;;
20124;SDS011;10223;50.862;4.360;2023-04-28T14:13:02;3.80;;;1.10;;
20124;SDS011;10223;50.862;4.360;2023-04-28T14:15:29;2.83;;;1.00;;
20124;SDS011;10223;50.862;4.360;2023-04-28T14:17:57;1.60;;;1.20;;
20124;SDS011;10223;50.862;4.360;2023-04-28T14:20:25;2.90;;;1.00;;
20124;SDS011;10223;50.862;4.360;2023-04-28T14:22:52;1.70;;;1.00;;
20124;SDS011;10223;50.862;4.360;2023-04-28T14:25:19;2.07;;;1.10;;
20124;SDS011;10223;50.862;4.360;2023-04-28T14:27:47;5.63;;;1.40;;
20124;SDS011;10223;50.862;4.360;2023-04-28T14:30:14;3.50;;;1.30;;
20124;SDS011;10223;50.862;4.360;2023-04-28T14:32:41;2.03;;;1.40;;
20124;SDS011;10223;50.862;4.360;2023-04-28T14:35:10;2.17;;;1.50;;
20124;SDS011;10223;50.862;4.360;2023-04-28T14:37:37;1.87;;;1.13;;
20124;SDS011;10223;50.862;4.360;2023-04-28T14:40:05;3.17;;;1.30;;
20124;SDS011;10223;50.862;4.360;2023-04-28T14:42:33;2.37;;;0.97;;
20124;SDS011;10223;50.862;4.360;2023-04-28T14:45:01;2.70;;;1.07;;
20124;SDS011;10223;50.862;4.360;2023-04-28T14:47:29;1.97;;;1.00;;
20124;SDS011;10223;50.862;4.360;2023-04-28T14:49:56;1.63;;;0.97;;
20124;SDS011;10223;50.862;4.360;2023-04-28T14:52:25;0.93;;;0.90;;
20124;SDS011;10223;50.862;4.360;2023-04-28T14:54:53;3.30;;;1.10;;
20124;SDS011;10223;50.862;4.360;2023-04-28T14:57:21;2.33;;;1.03;;